Time;durP1;ratioP1;P1;durP2;ratioP2;P2;SDS_P1;SDS_P2;PMS_P1;PMS_P2;Temp;Humidity;BMP_temperature;BMP_pressure;BME280_temperature;BME280_humidity;BME280_pressure;Samples;Min_cycle;Max_cycle;Signal;HPM_P1;HPM_P2
2023/04/30 00:01:54;;;;;;;12.60;7.68;;;;;;;7.37;80.86;102304.41;4899496;29;20045;-80
2023/04/30 00:04:20;;;;;;;16.52;7.60;;;;;;;7.37;80.62;102313.22;4881176;29;20039;-80
2023/04/30 00:06:45;;;;;;;13.65;7.25;;;;;;;7.36;82.09;102303.53;4901030;29;20036;-80
2023/04/30 00:09:11;;;;;;;11.75;7.28;;;;;;;7.30;80.96;102296.44;4903362;29;20433;-80
2023/04/30 00:11:36;;;;;;;15.02;7.63;;;;;;;7.25;81.94;102292.84;4887452;29;20037;-81
2023/04/30 00:14:02;;;;;;;11.18;7.15;;;;;;;7.16;80.03;102287.41;4904486;29;20020;-80
2023/04/30 00:16:27;;;;;;;11.27;7.15;;;;;;;7.16;80.64;102295.31;4914638;29;20115;-80
2023/04/30 00:18:53;;;;;;;16.13;8.73;;;;;;;7.10;82.12;102296.13;4901176;29;20088;-80
2023/04/30 00:21:18;;;;;;;16.27;7.45;;;;;;;7.06;82.53;102293.41;4900861;29;20044;-80
2023/04/30 00:23:44;;;;;;;11.93;7.47;;;;;;;7.00;81.60;102294.22;4899393;29;20115;-80
2023/04/30 00:26:09;;;;;;;11.02;7.45;;;;;;;6.96;80.97;102291.50;4916251;29;20124;-81
2023/04/30 00:28:35;;;;;;;9.65;7.22;;;;;;;6.95;82.85;102300.25;4916465;29;20032;-80
2023/04/30 00:31:01;;;;;;;18.25;8.05;;;;;;;6.88;83.70;102294.88;4898180;29;20460;-80
2023/04/30 00:33:28;;;;;;;10.88;7.22;;;;;;;6.91;82.66;102307.22;4880645;29;20037;-82
2023/04/30 00:35:53;;;;;;;12.55;7.70;;;;;;;6.88;82.51;102304.53;4911299;29;20496;-82
2023/04/30 00:38:19;;;;;;;14.02;7.75;;;;;;;6.88;82.88;102305.41;4893268;29;20119;-81
2023/04/30 00:40:45;;;;;;;12.63;7.20;;;;;;;6.76;83.32;102292.03;4928787;29;20044;-83
2023/04/30 00:43:11;;;;;;;13.15;7.13;;;;;;;6.83;83.22;102306.22;4908267;29;20040;-82
2023/04/30 00:45:36;;;;;;;16.35;7.88;;;;;;;6.82;83.84;102304.41;4881863;29;20041;-80
2023/04/30 00:48:02;;;;;;;10.48;7.32;;;;;;;6.78;83.37;102302.63;4909556;29;20167;-80
2023/04/30 00:50:28;;;;;;;10.60;7.65;;;;;;;6.73;83.84;102299.91;4884958;29;20044;-80
2023/04/30 00:52:54;;;;;;;16.77;8.18;;;;;;;6.74;83.51;102299.03;4888442;29;20035;-80
2023/04/30 00:55:19;;;;;;;11.85;7.47;;;;;;;6.71;84.54;102300.72;4898384;29;20438;-80
2023/04/30 00:57:45;;;;;;;16.73;8.50;;;;;;;6.66;84.86;102304.16;4902205;29;20392;-79
2023/04/30 01:00:12;;;;;;;12.93;7.80;;;;;;;6.64;84.68;102303.25;4900394;29;20460;-80
2023/04/30 01:02:38;;;;;;;10.30;7.03;;;;;;;6.61;83.10;102297.94;4906706;29;20039;-81
2023/04/30 01:05:05;;;;;;;13.27;7.55;;;;;;;6.62;84.97;102296.19;4910480;29;20028;-81
2023/04/30 01:07:32;;;;;;;11.70;7.30;;;;;;;6.54;84.55;102298.66;4897453;29;20028;-81
2023/04/30 01:09:58;;;;;;;16.27;8.45;;;;;;;6.51;86.32;102296.00;4899405;29;20040;-80
2023/04/30 01:12:48;;;;;;;12.55;7.43;;;;;;;6.49;85.04;102300.34;4866974;29;20032;-80
2023/04/30 01:15:32;;;;;;;9.98;7.13;;;;;;;6.43;85.02;102293.22;4902620;29;20147;-81
2023/04/30 01:18:26;;;;;;;10.70;7.30;;;;;;;6.38;85.59;102281.72;4899330;29;20472;-80
2023/04/30 01:21:03;;;;;;;12.02;7.53;;;;;;;6.38;86.09;102297.53;4909239;29;20035;-81
2023/04/30 01:23:33;;;;;;;14.32;8.57;;;;;;;6.36;86.43;102288.69;4905644;29;20388;-81
2023/04/30 01:26:17;;;;;;;14.07;8.50;;;;;;;6.38;86.23;102289.63;4894832;29;20044;-81
2023/04/30 01:28:45;;;;;;;17.52;8.63;;;;;;;6.32;86.78;102289.50;4898450;29;20551;-81
2023/04/30 01:31:16;;;;;;;13.20;7.00;;;;;;;6.26;84.20;102299.91;4898622;29;20102;-80
2023/04/30 01:33:42;;;;;;;19.58;8.70;;;;;;;6.24;86.22;102304.25;4862856;29;20163;-81
2023/04/30 01:36:26;;;;;;;12.93;8.10;;;;;;;6.23;86.99;102312.97;4894429;29;20246;-81
2023/04/30 01:39:04;;;;;;;13.40;7.80;;;;;;;6.20;88.67;102307.66;4915063;29;20035;-81
2023/04/30 01:41:38;;;;;;;14.45;8.43;;;;;;;6.20;89.38;102313.81;4914440;29;20070;-81
2023/04/30 01:44:24;;;;;;;14.63;8.63;;;;;;;6.21;89.50;102312.09;4916003;29;20432;-81
2023/04/30 01:47:01;;;;;;;11.27;8.15;;;;;;;6.15;89.24;102299.69;4906822;29;20449;-81
2023/04/30 01:49:37;;;;;;;13.90;8.75;;;;;;;6.15;89.30;102304.94;4907617;29;20036;-81
2023/04/30 01:52:16;;;;;;;16.58;8.57;;;;;;;6.12;89.46;102302.25;4886181;29;20020;-81
2023/04/30 01:54:51;;;;;;;11.18;7.40;;;;;;;6.07;90.22;102305.66;4914834;29;20032;-82
2023/04/30 01:57:24;;;;;;;17.25;7.95;;;;;;;6.05;88.72;102308.25;4910391;29;20040;-81
2023/04/30 01:59:51;;;;;;;16.30;7.82;;;;;;;6.04;89.50;102314.38;4899824;29;20083;-81
2023/04/30 02:02:17;;;;;;;13.10;7.68;;;;;;;6.03;88.80;102309.97;4883876;29;20064;-81
2023/04/30 02:04:42;;;;;;;13.57;8.40;;;;;;;5.96;89.55;102303.72;4907742;29;20068;-81
2023/04/30 02:07:07;;;;;;;12.38;7.88;;;;;;;5.92;89.33;102300.94;4901140;29;20036;-82
2023/04/30 02:09:33;;;;;;;14.98;8.10;;;;;;;5.87;89.59;102310.47;4888447;29;20048;-81
2023/04/30 02:11:59;;;;;;;16.23;8.10;;;;;;;5.85;90.08;102307.81;4897651;29;20055;-82
2023/04/30 02:14:25;;;;;;;13.57;7.32;;;;;;;5.84;88.60;102303.41;4909431;29;20421;-81
2023/04/30 02:16:51;;;;;;;12.10;8.25;;;;;;;5.84;89.69;102302.53;4887685;29;20052;-82
2023/04/30 02:19:17;;;;;;;14.80;8.60;;;;;;;5.84;90.30;102313.94;4880561;29;20077;-82
2023/04/30 02:21:42;;;;;;;15.20;8.50;;;;;;;5.82;90.51;102305.13;4900179;29;20119;-82
2023/04/30 02:24:08;;;;;;;13.90;8.10;;;;;;;5.77;89.87;102304.16;4882111;29;20040;-82
2023/04/30 02:26:33;;;;;;;15.57;8.73;;;;;;;5.75;90.15;102301.47;4906271;29;20492;-82
2023/04/30 02:28:59;;;;;;;13.40;8.00;;;;;;;5.73;90.98;102302.28;4888344;29;20041;-82
2023/04/30 02:31:24;;;;;;;14.45;9.05;;;;;;;5.75;92.58;102300.59;4898761;29;20392;-81
2023/04/30 02:33:50;;;;;;;15.65;8.27;;;;;;;5.76;91.61;102304.97;4885940;29;20040;-81
2023/04/30 02:36:15;;;;;;;10.80;7.55;;;;;;;5.74;91.98;102302.34;4910712;29;20032;-82
2023/04/30 02:38:41;;;;;;;11.85;7.50;;;;;;;5.73;92.28;102310.19;4871943;29;20073;-82
2023/04/30 02:41:06;;;;;;;16.05;7.90;;;;;;;5.73;93.00;102304.91;4886646;29;20033;-82
2023/04/30 02:43:32;;;;;;;12.38;8.25;;;;;;;5.70;91.75;102308.38;4889746;29;20114;-82
2023/04/30 02:45:58;;;;;;;14.68;8.38;;;;;;;5.70;92.81;102304.88;4904532;29;20503;-81
2023/04/30 02:48:24;;;;;;;12.00;7.95;;;;;;;5.62;92.59;102299.44;4889109;29;20057;-82
2023/04/30 02:50:50;;;;;;;17.42;8.65;;;;;;;5.64;92.84;102296.81;4896118;29;20040;-82
2023/04/30 02:53:15;;;;;;;16.80;7.70;;;;;;;5.66;93.14;102305.63;4899628;29;20075;-81
2023/04/30 02:55:41;;;;;;;16.35;8.32;;;;;;;5.63;94.25;102297.69;4898047;29;20387;-82
2023/04/30 02:58:06;;;;;;;15.05;8.27;;;;;;;5.66;93.87;102298.63;4893113;29;20041;-82
2023/04/30 03:00:32;;;;;;;13.45;8.75;;;;;;;5.64;93.10;102294.19;4908568;29;20041;-82
2023/04/30 03:02:57;;;;;;;14.18;8.25;;;;;;;5.60;93.68;102285.38;4899749;29;20092;-81
2023/04/30 03:05:23;;;;;;;13.93;8.07;;;;;;;5.61;93.28;102302.91;4909525;29;20112;-82
2023/04/30 03:07:48;;;;;;;12.95;8.10;;;;;;;5.61;94.09;102305.53;4898515;29;20048;-82
2023/04/30 03:10:14;;;;;;;14.60;8.50;;;;;;;5.61;94.35;102308.16;4887264;29;20040;-82
2023/04/30 03:12:39;;;;;;;13.60;8.07;;;;;;;5.58;94.04;102301.09;4901016;29;20376;-82
2023/04/30 03:15:06;;;;;;;11.73;7.95;;;;;;;5.56;93.98;102300.22;4898143;29;20080;-82
2023/04/30 03:17:31;;;;;;;13.65;8.77;;;;;;;5.54;95.11;102307.16;4933338;29;20040;-82
2023/04/30 03:19:57;;;;;;;14.90;9.02;;;;;;;5.50;93.72;102305.31;4881638;29;20064;-82
2023/04/30 03:22:25;;;;;;;13.57;8.73;;;;;;;5.47;94.60;102305.25;4910209;29;20068;-82
2023/04/30 03:24:50;;;;;;;14.35;8.45;;;;;;;5.44;93.78;102314.78;4914828;29;20051;-82
2023/04/30 03:27:16;;;;;;;12.98;8.57;;;;;;;5.41;93.85;102302.47;4915103;29;20040;-82
2023/04/30 03:29:41;;;;;;;12.88;8.40;;;;;;;5.43;94.27;102310.38;4917609;29;20032;-82
2023/04/30 03:32:07;;;;;;;12.55;8.18;;;;;;;5.41;95.02;102305.09;4914487;29;20043;-82
2023/04/30 03:34:33;;;;;;;17.48;8.48;;;;;;;5.40;94.73;102313.84;4903309;29;20036;-82
2023/04/30 03:37:00;;;;;;;14.50;8.57;;;;;;;5.37;95.16;102306.78;4907487;29;20078;-81
2023/04/30 03:39:26;;;;;;;13.00;9.38;;;;;;;5.38;95.30;102312.91;4903051;29;20044;-82
2023/04/30 03:41:51;;;;;;;12.77;8.60;;;;;;;5.38;96.15;102315.53;4897504;29;20036;-82
2023/04/30 03:44:17;;;;;;;17.77;8.80;;;;;;;5.35;95.31;102316.34;4892198;29;20036;-82
2023/04/30 03:46:42;;;;;;;13.85;9.88;;;;;;;5.31;95.70;102314.50;4914267;29;20062;-81
2023/04/30 03:49:08;;;;;;;13.43;8.82;;;;;;;5.31;95.82;102314.50;4916552;29;20052;-82
2023/04/30 03:51:38;;;;;;;14.77;9.13;;;;;;;5.28;95.36;102311.81;4919032;29;20120;-82
2023/04/30 03:54:07;;;;;;;13.32;9.05;;;;;;;5.26;95.91;102307.38;4895304;29;20040;-82
2023/04/30 03:56:34;;;;;;;13.05;8.73;;;;;;;5.21;94.53;102309.88;4914456;29;20112;-81
2023/04/30 03:59:00;;;;;;;16.75;9.18;;;;;;;5.23;95.56;102323.06;4910759;29;20380;-82
2023/04/30 04:01:26;;;;;;;10.98;8.40;;;;;;;5.21;95.26;102315.13;4898847;29;20041;-81
2023/04/30 04:03:52;;;;;;;14.52;8.90;;;;;;;5.20;96.28;102317.75;4896955;29;20040;-82
2023/04/30 04:06:18;;;;;;;13.98;9.15;;;;;;;5.18;96.04;102309.81;4898513;29;20060;-82
2023/04/30 04:08:44;;;;;;;12.00;8.50;;;;;;;5.17;96.24;102314.19;4896938;29;20119;-81
2023/04/30 04:11:11;;;;;;;13.63;8.82;;;;;;;5.17;96.80;102315.94;4897198;29;20501;-82
2023/04/30 04:13:36;;;;;;;14.63;9.25;;;;;;;5.14;96.33;102310.59;4895799;29;20060;-81
2023/04/30 04:16:02;;;;;;;11.43;7.63;;;;;;;5.12;96.02;102313.19;4912464;29;20388;-81
2023/04/30 04:18:28;;;;;;;11.88;8.35;;;;;;;5.10;95.08;102316.63;4912361;29;20131;-81
2023/04/30 04:20:55;;;;;;;11.55;8.07;;;;;;;5.06;94.72;102326.16;4898766;29;20111;-81
2023/04/30 04:23:21;;;;;;;11.40;8.00;;;;;;;5.06;95.59;102322.66;4900870;29;20079;-81
2023/04/30 04:25:48;;;;;;;13.15;8.43;;;;;;;5.03;95.29;102322.56;4912152;29;20060;-81
2023/04/30 04:28:15;;;;;;;15.15;8.60;;;;;;;5.01;95.50;102324.28;4893990;29;20032;-81
2023/04/30 04:30:42;;;;;;;14.60;8.55;;;;;;;4.93;95.19;102324.09;4913785;29;20366;-82
2023/04/30 04:33:10;;;;;;;12.90;8.32;;;;;;;4.91;95.44;102324.03;4901361;29;20048;-76
2023/04/30 04:35:36;;;;;;;13.15;8.80;;;;;;;4.90;95.78;102324.91;4906671;29;20055;-77
2023/04/30 04:38:03;;;;;;;11.43;7.95;;;;;;;4.92;96.41;102319.66;4912597;29;20445;-77
2023/04/30 04:40:29;;;;;;;13.68;9.70;;;;;;;4.88;96.32;102323.09;4931082;29;20372;-77
2023/04/30 04:42:54;;;;;;;12.05;8.52;;;;;;;4.89;96.35;102320.47;4927270;29;20042;-76
2023/04/30 04:45:20;;;;;;;14.32;8.57;;;;;;;4.91;96.64;102328.41;4895842;29;20092;-77
2023/04/30 04:47:48;;;;;;;15.93;9.63;;;;;;;4.90;97.75;102326.66;4906318;29;20056;-76
2023/04/30 04:50:13;;;;;;;14.73;9.20;;;;;;;4.91;97.02;102325.78;4879598;29;20051;-76
2023/04/30 04:52:39;;;;;;;18.23;9.25;;;;;;;4.91;98.17;102324.03;4916630;29;20139;-76
2023/04/30 04:55:06;;;;;;;14.38;8.68;;;;;;;4.96;97.00;102332.03;4904087;29;20476;-76
2023/04/30 04:57:31;;;;;;;14.07;9.27;;;;;;;4.95;98.60;102327.66;4909494;29;20040;-76
2023/04/30 04:59:57;;;;;;;14.13;9.05;;;;;;;5.04;98.47;102337.47;4915508;29;20052;-76
2023/04/30 05:02:22;;;;;;;15.10;9.90;;;;;;;5.09;99.64;102343.72;4901126;29;20040;-81
2023/04/30 05:04:49;;;;;;;15.43;9.55;;;;;;;5.15;99.67;102339.53;4911329;29;20527;-81
2023/04/30 05:07:17;;;;;;;14.68;9.43;;;;;;;5.25;99.93;102343.25;4905120;29;20032;-81
2023/04/30 05:09:45;;;;;;;14.43;9.45;;;;;;;5.32;99.93;102344.31;4880193;29;20180;-81
2023/04/30 05:12:11;;;;;;;13.80;9.70;;;;;;;5.43;100.00;102341.91;4908758;29;20039;-82
2023/04/30 05:14:36;;;;;;;13.88;9.52;;;;;;;5.52;100.00;102336.88;4912613;29;20400;-81
2023/04/30 05:17:02;;;;;;;16.35;10.50;;;;;;;5.61;100.00;102342.31;4916616;29;20115;-81
2023/04/30 05:19:27;;;;;;;15.07;9.45;;;;;;;5.64;100.00;102336.25;4908216;29;20037;-81
2023/04/30 05:21:53;;;;;;;14.02;9.45;;;;;;;5.74;100.00;102339.13;4923847;29;20060;-81
2023/04/30 05:24:18;;;;;;;14.23;10.02;;;;;;;5.86;100.00;102337.59;4917984;29;20028;-81
2023/04/30 05:26:44;;;;;;;14.15;10.10;;;;;;;5.94;100.00;102328.19;4916425;29;20395;-81
2023/04/30 05:29:10;;;;;;;13.05;10.38;;;;;;;6.02;100.00;102332.75;4915964;29;20091;-81
2023/04/30 05:31:36;;;;;;;14.77;10.02;;;;;;;6.09;100.00;102331.16;4895421;29;20120;-81
2023/04/30 05:34:02;;;;;;;15.23;10.57;;;;;;;6.18;100.00;102327.78;4902013;29;20028;-81
2023/04/30 05:36:28;;;;;;;17.33;11.23;;;;;;;6.21;100.00;102320.88;4910330;29;20036;-81
2023/04/30 05:38:54;;;;;;;15.05;10.65;;;;;;;6.35;100.00;102326.38;4906525;29;20032;-81
2023/04/30 05:41:20;;;;;;;15.32;9.93;;;;;;;6.43;99.61;102327.44;4915618;29;20408;-81
2023/04/30 05:43:46;;;;;;;16.42;10.25;;;;;;;6.51;100.00;102321.44;4916303;29;20036;-81
2023/04/30 05:46:12;;;;;;;14.30;10.60;;;;;;;6.60;100.00;102325.13;4915694;29;20600;-81
2023/04/30 05:48:37;;;;;;;17.08;10.02;;;;;;;6.68;100.00;102328.78;4914673;29;20135;-81
2023/04/30 05:51:05;;;;;;;15.00;10.18;;;;;;;6.80;99.51;102324.56;4894900;29;20473;-81
2023/04/30 05:53:31;;;;;;;17.23;11.10;;;;;;;6.89;100.00;102330.00;4900968;29;20570;-81
2023/04/30 05:55:56;;;;;;;21.48;10.57;;;;;;;6.98;100.00;102327.53;4904956;29;20222;-81
2023/04/30 05:58:22;;;;;;;16.50;10.43;;;;;;;7.04;99.57;102321.47;4900568;29;20108;-81
2023/04/30 06:00:51;;;;;;;15.80;10.70;;;;;;;7.15;98.99;102324.28;4904834;29;20040;-80
2023/04/30 06:03:19;;;;;;;20.33;11.02;;;;;;;7.23;98.43;102323.53;4897947;29;20044;-81
2023/04/30 06:05:48;;;;;;;16.50;9.55;;;;;;;7.31;97.63;102318.38;4867248;29;20396;-81
2023/04/30 06:08:13;;;;;;;14.38;9.80;;;;;;;7.42;97.33;102322.09;4896538;29;20039;-81
2023/04/30 06:10:39;;;;;;;15.55;10.48;;;;;;;7.51;98.67;102327.47;4882724;29;20044;-81
2023/04/30 06:13:05;;;;;;;13.95;9.77;;;;;;;7.60;97.27;102323.22;4895271;29;20032;-81
2023/04/30 06:15:32;;;;;;;15.25;9.80;;;;;;;7.67;97.83;102323.31;4908067;29;20079;-82
2023/04/30 06:17:57;;;;;;;13.68;10.02;;;;;;;7.79;96.48;102314.69;4910085;29;20032;-80
2023/04/30 06:20:23;;;;;;;14.25;9.73;;;;;;;7.88;96.36;102316.56;4896171;29;20077;-81
2023/04/30 06:22:48;;;;;;;14.75;9.68;;;;;;;7.97;95.02;102312.28;4898441;29;20093;-81
2023/04/30 06:25:14;;;;;;;17.05;9.48;;;;;;;8.06;94.11;102307.97;4902227;29;20058;-80
2023/04/30 06:27:39;;;;;;;14.02;9.50;;;;;;;8.13;94.08;102310.69;4901020;29;20068;-80
2023/04/30 06:30:05;;;;;;;11.57;8.07;;;;;;;8.22;93.63;102322.25;4910614;29;20229;-81
2023/04/30 06:32:31;;;;;;;15.85;9.75;;;;;;;8.31;93.96;102319.72;4899151;29;20037;-80
2023/04/30 06:34:57;;;;;;;13.98;8.63;;;;;;;8.40;92.55;102317.19;4907688;29;20340;-80
2023/04/30 06:37:23;;;;;;;14.50;9.55;;;;;;;8.47;90.82;102321.66;4916622;29;20032;-82
2023/04/30 06:39:49;;;;;;;18.45;10.55;;;;;;;8.57;91.18;102320.91;4915677;29;20030;-82
2023/04/30 06:42:14;;;;;;;14.30;11.20;;;;;;;8.65;90.98;102323.59;4911449;29;20048;-82
2023/04/30 06:44:39;;;;;;;15.43;10.00;;;;;;;8.73;90.91;102323.69;4918357;29;20060;-82
2023/04/30 06:47:05;;;;;;;54.85;34.17;;;;;;;8.85;90.94;102330.84;4901892;29;20059;-82
2023/04/30 06:49:31;;;;;;;43.08;30.00;;;;;;;8.96;90.63;102329.19;4904260;29;20422;-82
2023/04/30 06:51:57;;;;;;;24.42;15.57;;;;;;;9.06;89.97;102331.03;4911680;29;20345;-81
2023/04/30 06:54:25;;;;;;;19.55;11.60;;;;;;;9.15;88.79;102333.75;4901222;29;20507;-82
2023/04/30 06:56:51;;;;;;;18.70;9.75;;;;;;;9.20;89.69;102323.22;4906972;29;20432;-82
2023/04/30 06:59:17;;;;;;;17.00;10.50;;;;;;;9.35;88.88;102328.63;4897961;29;20036;-82
2023/04/30 07:01:42;;;;;;;15.00;8.90;;;;;;;9.40;88.25;102321.59;4910366;29;20500;-82
2023/04/30 07:04:07;;;;;;;16.67;10.07;;;;;;;9.54;88.39;102334.00;4900074;29;20032;-82
2023/04/30 07:06:33;;;;;;;18.63;12.60;;;;;;;9.59;86.56;102333.16;4906437;29;20095;-82
2023/04/30 07:08:58;;;;;;;15.15;10.85;;;;;;;9.63;86.67;102318.22;4902200;29;20036;-82
2023/04/30 07:11:24;;;;;;;13.63;9.80;;;;;;;9.79;87.05;102322.72;4890929;29;20135;-82
2023/04/30 07:13:50;;;;;;;15.93;10.48;;;;;;;9.87;86.46;102317.47;4905850;29;20023;-82
2023/04/30 07:16:15;;;;;;;18.38;9.38;;;;;;;10.00;86.47;102316.63;4916043;29;20086;-82
2023/04/30 07:18:41;;;;;;;14.90;9.63;;;;;;;10.12;85.36;102323.75;4880841;29;20115;-82
2023/04/30 07:21:07;;;;;;;12.90;9.38;;;;;;;10.20;85.83;102315.81;4899454;29;20051;-82
2023/04/30 07:23:33;;;;;;;16.92;10.25;;;;;;;10.25;83.88;102322.00;4903158;29;20067;-81
2023/04/30 07:25:59;;;;;;;17.40;10.50;;;;;;;10.33;84.43;102310.59;4914261;29;20122;-81
2023/04/30 07:28:25;;;;;;;26.85;16.55;;;;;;;10.43;84.31;102313.25;4913728;29;20159;-82
2023/04/30 07:30:51;;;;;;;19.20;11.10;;;;;;;10.55;85.09;102314.16;4917795;29;20048;-82
2023/04/30 07:33:17;;;;;;;12.38;8.57;;;;;;;10.68;83.83;102311.53;4894388;29;20017;-81
2023/04/30 07:35:43;;;;;;;16.40;10.80;;;;;;;10.72;82.21;102305.38;4910271;29;20180;-82
2023/04/30 07:38:08;;;;;;;15.90;10.65;;;;;;;10.84;83.20;102310.69;4898518;29;20028;-83
2023/04/30 07:40:34;;;;;;;19.00;14.45;;;;;;;10.96;82.68;102304.50;4913120;29;20046;-81
2023/04/30 07:42:59;;;;;;;22.33;15.80;;;;;;;11.04;81.00;102308.03;4885356;29;20036;-82
2023/04/30 07:45:25;;;;;;;14.75;8.90;;;;;;;11.12;80.68;102311.53;4906623;29;20047;-81
2023/04/30 07:47:50;;;;;;;15.35;9.52;;;;;;;11.23;81.20;102305.38;4904616;29;20052;-81
2023/04/30 07:50:16;;;;;;;12.95;8.98;;;;;;;11.33;79.53;102309.78;4909303;29;20044;-81
2023/04/30 07:52:41;;;;;;;13.93;10.48;;;;;;;11.40;79.67;102308.88;4893499;29;20485;-82
2023/04/30 07:55:07;;;;;;;14.07;9.10;;;;;;;11.51;79.48;102323.00;4909113;29;20084;-81
2023/04/30 07:57:33;;;;;;;13.75;9.70;;;;;;;11.61;78.99;102323.88;4912732;29;20472;-82
2023/04/30 07:59:58;;;;;;;12.27;8.52;;;;;;;11.67;78.16;102315.00;4910068;29;20040;-82
2023/04/30 08:02:24;;;;;;;12.77;9.30;;;;;;;11.74;78.17;102311.44;4901041;29;20315;-82
2023/04/30 08:04:49;;;;;;;14.45;8.00;;;;;;;11.79;77.23;102315.88;4917873;29;20360;-82
2023/04/30 08:07:15;;;;;;;14.02;9.32;;;;;;;11.93;77.50;102320.25;4910046;29;20449;-81
2023/04/30 08:09:40;;;;;;;16.58;10.00;;;;;;;11.98;76.99;102321.13;4891905;29;20084;-82
2023/04/30 08:12:07;;;;;;;15.60;9.18;;;;;;;12.03;76.45;102317.56;4886891;29;20058;-81
2023/04/30 08:14:33;;;;;;;11.93;9.00;;;;;;;12.10;75.98;102322.84;4917136;29;20048;-81
2023/04/30 08:16:59;;;;;;;15.98;9.20;;;;;;;12.21;75.50;102329.84;4900415;29;20082;-81
2023/04/30 08:19:25;;;;;;;13.73;8.55;;;;;;;12.30;75.18;102320.97;4910566;29;20040;-82
2023/04/30 08:21:51;;;;;;;13.95;9.15;;;;;;;12.36;74.37;102320.03;4897355;29;20041;-82
2023/04/30 08:24:23;;;;;;;10.13;8.07;;;;;;;12.42;75.02;102325.34;4884267;29;20040;-81
2023/04/30 08:26:54;;;;;;;12.90;8.07;;;;;;;12.54;74.78;102324.41;4897604;29;20051;-81
2023/04/30 08:29:20;;;;;;;11.55;8.10;;;;;;;12.66;72.90;102327.84;4912617;29;20392;-81
2023/04/30 08:31:45;;;;;;;13.15;8.38;;;;;;;12.72;73.30;102318.94;4910875;29;20106;-81
2023/04/30 08:34:11;;;;;;;16.90;8.57;;;;;;;12.81;74.48;102321.53;4886774;29;20464;-82
2023/04/30 08:36:36;;;;;;;12.38;8.80;;;;;;;12.95;73.28;102325.84;4902700;29;20381;-81
2023/04/30 08:39:02;;;;;;;12.35;8.85;;;;;;;13.05;72.82;102325.75;4912852;29;20094;-82
2023/04/30 08:41:32;;;;;;;13.13;8.75;;;;;;;13.15;73.12;102315.91;4919514;29;20096;-82
2023/04/30 08:44:00;;;;;;;11.57;8.52;;;;;;;13.28;73.11;102314.97;4913007;29;20538;-81
2023/04/30 08:46:27;;;;;;;13.45;8.38;;;;;;;13.41;72.27;102318.38;4889652;29;20165;-81
2023/04/30 08:48:53;;;;;;;12.32;7.53;;;;;;;13.58;71.30;102325.31;4915608;29;20047;-81
2023/04/30 08:51:20;;;;;;;12.43;8.32;;;;;;;13.66;70.63;102312.81;4896346;29;20496;-81
2023/04/30 08:53:49;;;;;;;16.00;8.45;;;;;;;13.81;69.77;102319.72;4899387;29;20143;-81
2023/04/30 08:56:15;;;;;;;13.27;8.55;;;;;;;13.88;69.62;102322.28;4906909;29;20024;-81
2023/04/30 08:58:40;;;;;;;12.73;8.35;;;;;;;13.85;69.25;102309.03;4914923;29;20038;-82
2023/04/30 09:01:07;;;;;;;13.82;8.63;;;;;;;13.95;69.25;102317.78;4889537;29;20060;-81
2023/04/30 09:03:33;;;;;;;12.48;7.95;;;;;;;14.03;67.80;102312.34;4900038;29;20110;-81
2023/04/30 09:05:58;;;;;;;10.20;8.05;;;;;;;14.07;67.29;102309.66;4902636;29;20509;-81
2023/04/30 09:08:45;;;;;;;15.55;8.55;;;;;;;14.19;68.47;102301.50;4911432;29;20047;-82
2023/04/30 09:11:29;;;;;;;14.32;8.27;;;;;;;14.37;67.58;102305.66;4913538;29;20032;-81
2023/04/30 09:13:58;;;;;;;13.30;7.80;;;;;;;14.49;66.54;102301.94;4915973;29;20391;-82
2023/04/30 09:16:26;;;;;;;12.20;8.35;;;;;;;14.62;65.29;102303.56;4915802;29;20396;-76
2023/04/30 09:18:52;;;;;;;12.32;8.25;;;;;;;14.71;64.42;102297.22;4912055;29;20095;-76
2023/04/30 09:21:30;;;;;;;12.02;8.43;;;;;;;14.86;65.03;102301.41;4895146;29;20024;-76
2023/04/30 09:23:57;;;;;;;13.20;8.27;;;;;;;14.98;64.25;102309.19;4910090;29;20036;-76
2023/04/30 09:26:34;;;;;;;11.23;8.25;;;;;;;15.14;64.50;102301.81;4915705;29;20436;-76
2023/04/30 09:29:00;;;;;;;13.18;8.73;;;;;;;15.25;62.89;102304.28;4915545;29;20049;-75
2023/04/30 09:31:26;;;;;;;19.23;12.68;;;;;;;15.30;60.38;102299.75;4913039;29;20024;-75
2023/04/30 09:33:52;;;;;;;25.92;18.05;;;;;;;15.29;62.35;102302.44;4898206;29;20033;-76
2023/04/30 09:36:19;;;;;;;15.68;10.23;;;;;;;15.33;62.21;102301.47;4882239;29;20025;-76
2023/04/30 09:38:45;;;;;;;11.77;7.88;;;;;;;15.51;61.99;102292.25;4912447;29;20436;-76
2023/04/30 09:41:27;;;;;;;13.63;8.32;;;;;;;15.60;61.18;102298.31;4867142;29;20064;-75
2023/04/30 09:43:57;;;;;;;20.02;8.02;;;;;;;15.74;59.92;102295.38;4907135;29;20040;-76
2023/04/30 09:46:33;;;;;;;12.75;7.93;;;;;;;15.85;61.29;102293.38;4915289;29;20106;-76
2023/04/30 09:49:04;;;;;;;8.23;6.25;;;;;;;15.93;58.26;102292.34;4915211;29;20091;-76
2023/04/30 09:51:30;;;;;;;9.85;5.80;;;;;;;16.07;60.00;102282.22;4913302;29;20050;-76
2023/04/30 09:53:56;;;;;;;7.30;5.50;;;;;;;16.08;57.85;102278.63;4899196;29;20036;-75
2023/04/30 09:56:25;;;;;;;7.10;5.28;;;;;;;16.18;57.38;102276.66;4878823;29;20044;-75
2023/04/30 09:58:53;;;;;;;9.77;6.20;;;;;;;16.23;58.24;102280.97;4901328;29;20123;-76
2023/04/30 10:01:20;;;;;;;8.10;6.25;;;;;;;16.37;57.52;102278.00;4891188;29;20051;-76
2023/04/30 10:03:47;;;;;;;8.60;6.15;;;;;;;16.60;58.06;102279.25;4902512;29;20080;-76
2023/04/30 10:06:18;;;;;;;9.10;6.55;;;;;;;16.77;58.24;102275.22;4896287;29;20056;-76
2023/04/30 10:08:47;;;;;;;9.07;6.80;;;;;;;16.82;57.63;102261.78;4912814;29;20055;-76
2023/04/30 10:11:17;;;;;;;6.60;5.20;;;;;;;16.90;56.81;102267.78;4915550;29;20020;-75
2023/04/30 10:13:50;;;;;;;7.30;5.00;;;;;;;16.99;53.85;102272.06;4914902;29;20363;-76
2023/04/30 10:16:31;;;;;;;9.95;4.65;;;;;;;16.98;54.98;102268.47;4907146;29;20561;-76
2023/04/30 10:19:01;;;;;;;7.97;5.53;;;;;;;17.13;56.00;102267.19;4900909;29;20084;-76
2023/04/30 10:21:27;;;;;;;4.90;3.70;;;;;;;17.22;53.55;102259.84;4900737;29;20040;-76
2023/04/30 10:23:53;;;;;;;6.22;3.78;;;;;;;17.31;52.99;102254.22;4901823;29;20076;-76
2023/04/30 10:26:19;;;;;;;5.85;4.00;;;;;;;17.44;52.55;102254.78;4918627;29;20036;-76
2023/04/30 10:28:49;;;;;;;8.57;5.47;;;;;;;17.51;52.50;102262.59;4918769;29;20437;-76
2023/04/30 10:31:16;;;;;;;6.38;5.00;;;;;;;17.60;52.79;102258.78;4917812;29;20036;-76
2023/04/30 10:34:07;;;;;;;9.70;5.18;;;;;;;17.73;54.20;102248.56;4897938;29;20036;-76
2023/04/30 10:36:43;;;;;;;6.60;4.90;;;;;;;17.88;54.55;102247.28;4913034;29;20033;-76
2023/04/30 10:39:11;;;;;;;5.78;4.60;;;;;;;18.04;52.50;102243.22;4894146;29;20040;-76
2023/04/30 10:41:37;;;;;;;7.13;5.22;;;;;;;18.21;53.01;102237.34;4914110;29;20072;-76
2023/04/30 10:44:04;;;;;;;7.78;5.05;;;;;;;18.24;50.09;102240.78;4909469;29;20072;-76
2023/04/30 10:46:30;;;;;;;8.38;5.20;;;;;;;18.19;50.46;102237.38;4918253;29;20035;-76
2023/04/30 10:48:55;;;;;;;9.07;5.30;;;;;;;18.22;51.58;102236.38;4918116;29;20060;-76
2023/04/30 10:51:21;;;;;;;6.65;5.30;;;;;;;18.37;51.58;102232.34;4917027;29;20452;-76
2023/04/30 10:53:51;;;;;;;7.32;4.95;;;;;;;18.51;50.37;102223.84;4918349;29;20055;-76
2023/04/30 10:56:33;;;;;;;8.18;4.38;;;;;;;18.65;50.61;102224.28;4900927;29;20035;-76
2023/04/30 10:59:01;;;;;;;5.90;4.38;;;;;;;18.69;48.13;102226.81;4894482;29;20460;-76
2023/04/30 11:01:28;;;;;;;7.05;4.63;;;;;;;18.73;49.93;102222.19;4918108;29;20040;-76
2023/04/30 11:04:07;;;;;;;8.00;5.05;;;;;;;18.98;50.16;102214.22;4917873;29;20040;-76
2023/04/30 11:06:51;;;;;;;8.98;4.60;;;;;;;19.24;51.68;102209.72;4918207;29;20510;-76
2023/04/30 11:09:17;;;;;;;6.30;5.10;;;;;;;19.48;49.21;102207.94;4895738;29;20039;-76
2023/04/30 11:11:49;;;;;;;7.85;5.47;;;;;;;19.64;48.40;102201.06;4903640;29;20033;-76
2023/04/30 11:14:19;;;;;;;5.97;4.85;;;;;;;19.92;48.97;102200.88;4900861;29;20036;-76
2023/04/30 11:16:48;;;;;;;8.77;5.18;;;;;;;20.04;45.52;102199.53;4917841;29;20118;-76
2023/04/30 11:19:14;;;;;;;8.98;4.63;;;;;;;20.09;48.88;102194.81;4908664;29;20108;-76
2023/04/30 11:21:41;;;;;;;5.80;4.20;;;;;;;20.14;47.34;102197.34;4878283;29;20507;-76
2023/04/30 11:24:07;;;;;;;5.97;4.10;;;;;;;20.20;45.54;102202.44;4911859;29;20059;-76